createdAt,value
2023-01-08T00:00:58.690Z,14.23
2023-01-08T00:03:26.076Z,15.93
2023-01-08T00:05:59.609Z,13.00
2023-01-08T00:08:26.801Z,16.13
2023-01-08T00:10:56.985Z,12.52
2023-01-08T00:13:30.587Z,15.98
2023-01-08T00:15:57.821Z,16.67
2023-01-08T00:18:33.703Z,17.20
2023-01-08T00:21:01.361Z,14.05
2023-01-08T00:23:28.621Z,14.73
2023-01-08T00:26:02.640Z,15.18
2023-01-08T00:28:29.920Z,16.02
2023-01-08T00:31:03.982Z,11.90
2023-01-08T00:33:31.724Z,16.60
2023-01-08T00:35:58.858Z,18.10
2023-01-08T00:38:33.710Z,15.30
2023-01-08T00:41:00.953Z,13.52
2023-01-08T00:43:34.719Z,14.70
2023-01-08T00:46:01.971Z,14.75
2023-01-08T00:48:29.216Z,15.18
2023-01-08T00:51:03.616Z,10.70
2023-01-08T00:53:46.559Z,15.10
2023-01-08T00:56:20.644Z,12.38
2023-01-08T00:58:54.581Z,12.75
2023-01-08T01:01:21.925Z,13.88
2023-01-08T01:03:49.208Z,14.25
2023-01-08T01:06:22.616Z,15.18
2023-01-08T01:08:49.715Z,13.95
2023-01-08T01:11:27.763Z,16.58
2023-01-08T01:13:56.020Z,14.57
2023-01-08T01:16:23.271Z,14.20
2023-01-08T01:18:58.724Z,15.35
2023-01-08T01:21:27.343Z,16.30
2023-01-08T01:24:02.678Z,16.63
2023-01-08T01:26:29.872Z,16.77
2023-01-08T01:28:58.118Z,17.13
2023-01-08T01:31:32.609Z,14.05
2023-01-08T01:34:06.719Z,15.20
2023-01-08T01:36:40.858Z,13.40
2023-01-08T01:39:08.164Z,12.85
2023-01-08T01:41:48.804Z,6.93
2023-01-08T01:44:35.846Z,14.23
2023-01-08T01:47:11.688Z,12.40
2023-01-08T01:49:39.492Z,15.07
2023-01-08T01:52:21.713Z,14.57
2023-01-08T01:54:55.803Z,15.95
2023-01-08T01:57:29.740Z,15.15
2023-01-08T01:59:58.141Z,15.75
2023-01-08T02:02:25.435Z,17.95
2023-01-08T02:04:59.729Z,17.42
2023-01-08T02:07:31.730Z,18.70
2023-01-08T02:10:19.635Z,18.70
2023-01-08T02:12:51.955Z,18.60
2023-01-08T02:15:30.649Z,22.05
2023-01-08T02:18:01.607Z,21.60
2023-01-08T02:20:38.648Z,21.42
2023-01-08T02:23:27.863Z,24.35
2023-01-08T02:26:19.771Z,23.20
2023-01-08T02:28:50.029Z,23.70
2023-01-08T02:31:18.313Z,28.30
2023-01-08T02:33:51.630Z,25.02
2023-01-08T02:36:37.007Z,26.98
2023-01-08T02:39:15.763Z,27.13
2023-01-08T02:41:53.855Z,26.60
2023-01-08T02:44:40.649Z,24.70
2023-01-08T02:47:11.568Z,29.98
2023-01-08T02:49:46.629Z,26.40
2023-01-08T02:52:21.629Z,25.35
2023-01-08T02:55:02.741Z,24.17
2023-01-08T02:57:30.939Z,26.58
2023-01-08T02:59:58.721Z,25.80
2023-01-08T03:02:36.683Z,24.42
2023-01-08T03:05:08.168Z,24.75
2023-01-08T03:07:41.679Z,20.50
2023-01-08T03:10:09.026Z,24.20
2023-01-08T03:12:51.724Z,22.55
2023-01-08T03:15:23.360Z,26.33
2023-01-08T03:17:58.891Z,27.35
2023-01-08T03:20:26.218Z,23.45
2023-01-08T03:22:56.465Z,25.48
2023-01-08T03:25:31.674Z,28.10
2023-01-08T03:28:01.187Z,23.63
2023-01-08T03:30:43.723Z,25.98
2023-01-08T03:33:12.628Z,24.60
2023-01-08T03:35:48.686Z,28.27
2023-01-08T03:38:23.347Z,29.33
2023-01-08T03:40:59.674Z,24.48
2023-01-08T03:43:28.184Z,25.13
2023-01-08T03:45:58.295Z,27.65
2023-01-08T03:48:33.713Z,26.30
2023-01-08T03:51:00.940Z,29.13
2023-01-08T03:53:40.699Z,28.60
2023-01-08T03:56:14.703Z,21.83
2023-01-08T03:58:49.099Z,22.35
2023-01-08T04:01:16.311Z,24.13
2023-01-08T04:03:43.435Z,24.52
2023-01-08T04:06:16.681Z,29.05
2023-01-08T04:08:43.887Z,25.27
2023-01-08T04:11:17.740Z,28.00
2023-01-08T04:13:44.983Z,26.40
2023-01-08T04:16:12.215Z,25.48
2023-01-08T04:18:45.681Z,25.98
2023-01-08T04:21:12.850Z,24.35
2023-01-08T04:23:46.696Z,28.92
2023-01-08T04:26:13.850Z,23.13
2023-01-08T04:28:40.948Z,23.30
2023-01-08T04:31:15.742Z,26.23
2023-01-08T04:33:42.917Z,25.25
2023-01-08T04:36:16.829Z,27.33
2023-01-08T04:38:44.017Z,22.35
2023-01-08T04:41:11.146Z,25.95
2023-01-08T04:43:44.707Z,26.13
2023-01-08T04:46:12.026Z,22.92
2023-01-08T04:48:45.693Z,25.98
2023-01-08T04:51:12.873Z,23.05
2023-01-08T04:53:52.688Z,17.98
2023-01-08T04:56:19.882Z,23.38
2023-01-08T04:58:53.726Z,25.17
2023-01-08T05:01:22.069Z,26.95
2023-01-08T05:03:53.155Z,20.50
2023-01-08T05:06:26.789Z,21.05
2023-01-08T05:08:54.042Z,20.33
2023-01-08T05:11:27.772Z,20.05
2023-01-08T05:13:54.910Z,22.02
2023-01-08T05:16:22.048Z,20.50
2023-01-08T05:18:55.754Z,19.90
2023-01-08T05:21:22.859Z,22.45
2023-01-08T05:23:56.706Z,20.63
2023-01-08T05:26:23.944Z,21.90
2023-01-08T05:28:51.147Z,23.08
2023-01-08T05:31:24.915Z,24.05
2023-01-08T05:33:52.183Z,20.75
2023-01-08T05:36:19.784Z,25.17
2023-01-08T05:41:21.004Z,23.05
2023-01-08T05:43:54.724Z,29.27
2023-01-08T05:46:22.035Z,25.95
2023-01-08T05:48:49.188Z,27.92
2023-01-08T05:51:22.675Z,29.67
2023-01-08T05:53:57.769Z,27.33
2023-01-08T05:56:31.727Z,31.08
2023-01-08T05:58:58.975Z,28.83
2023-01-08T06:01:26.185Z,28.98
2023-01-08T06:04:01.717Z,30.92
2023-01-08T06:06:29.041Z,31.02
2023-01-08T06:09:02.728Z,27.80
2023-01-08T06:11:30.008Z,29.88
2023-01-08T06:13:57.159Z,27.55
2023-01-08T06:16:30.678Z,22.80
2023-01-08T06:18:57.913Z,24.40
2023-01-08T06:21:31.733Z,28.40
2023-01-08T06:23:58.889Z,26.50
2023-01-08T06:26:26.041Z,26.15
2023-01-08T06:28:59.853Z,38.15
2023-01-08T06:31:27.224Z,27.85
2023-01-08T06:33:54.314Z,26.90
2023-01-08T06:36:28.798Z,27.65
2023-01-08T06:38:56.041Z,25.95
2023-01-08T06:41:29.781Z,22.23
2023-01-08T06:43:56.928Z,28.20
2023-01-08T06:46:24.179Z,23.98
2023-01-08T06:48:57.675Z,26.88
2023-01-08T06:51:24.883Z,22.42
2023-01-08T06:53:58.794Z,24.85
2023-01-08T06:56:37.700Z,25.83
2023-01-08T06:59:18.861Z,23.83
2023-01-08T07:01:46.012Z,21.42
2023-01-08T07:04:13.478Z,24.30
2023-01-08T07:06:46.726Z,20.33
2023-01-08T07:09:14.861Z,22.80
2023-01-08T07:11:48.742Z,20.77
2023-01-08T07:14:15.922Z,21.25
2023-01-08T07:16:43.201Z,21.92
2023-01-08T07:19:16.703Z,20.25
2023-01-08T07:21:43.797Z,16.30
2023-01-08T07:24:17.889Z,17.50
2023-01-08T07:26:44.984Z,16.88
2023-01-08T07:29:12.532Z,12.60
2023-01-08T07:34:15.195Z,14.13
2023-01-08T07:37:01.775Z,12.15
2023-01-08T07:39:28.938Z,11.35
2023-01-08T07:41:56.299Z,13.48
2023-01-08T07:44:29.798Z,11.63
2023-01-08T07:46:56.933Z,15.38
2023-01-08T07:49:30.844Z,14.05
2023-01-08T07:51:57.929Z,9.45
2023-01-08T07:54:37.835Z,12.07
2023-01-08T07:57:04.991Z,9.38
2023-01-08T07:59:32.147Z,8.27
2023-01-08T08:02:05.872Z,7.72
2023-01-08T08:04:33.395Z,8.05
2023-01-08T08:07:06.882Z,8.18
2023-01-08T08:09:33.987Z,10.43
2023-01-08T08:12:01.224Z,10.30
2023-01-08T08:14:34.785Z,9.05
2023-01-08T08:17:02.138Z,9.38
2023-01-08T08:19:35.812Z,9.60
2023-01-08T08:22:02.932Z,10.15
2023-01-08T08:24:30.056Z,11.23
2023-01-08T08:27:03.735Z,9.93
2023-01-08T08:29:30.873Z,10.88
2023-01-08T08:32:04.901Z,14.88
2023-01-08T08:34:32.037Z,14.43
2023-01-08T08:36:59.114Z,18.02
2023-01-08T08:39:32.721Z,21.92
2023-01-08T08:41:59.882Z,20.38
2023-01-08T08:44:33.801Z,23.90
2023-01-08T08:47:01.074Z,27.25
2023-01-08T08:49:28.288Z,26.30
2023-01-08T08:52:01.718Z,34.75
2023-01-08T08:54:36.918Z,28.55
2023-01-08T08:57:10.763Z,30.48
2023-01-08T08:59:37.983Z,38.53
2023-01-08T09:02:05.657Z,40.15
2023-01-08T09:04:40.795Z,44.22
2023-01-08T09:07:08.016Z,41.72
2023-01-08T09:09:41.833Z,37.05
2023-01-08T09:12:09.906Z,42.80
2023-01-08T09:14:43.775Z,55.17
2023-01-08T09:17:11.047Z,44.40
2023-01-08T09:19:38.873Z,52.70
2023-01-08T09:22:12.738Z,46.60
2023-01-08T09:24:39.906Z,46.65
2023-01-08T09:27:13.775Z,49.50
2023-01-08T09:29:40.939Z,51.63
2023-01-08T09:32:08.255Z,46.47
2023-01-08T09:34:42.876Z,54.05
2023-01-08T09:37:10.103Z,46.42
2023-01-08T09:39:48.038Z,60.47
2023-01-08T09:42:21.832Z,179.60
2023-01-08T09:44:49.538Z,69.05
2023-01-08T09:47:32.717Z,96.57
2023-01-08T09:50:03.073Z,71.18
2023-01-08T09:52:37.823Z,57.15
2023-01-08T09:55:15.314Z,53.47
2023-01-08T09:57:49.817Z,64.53
2023-01-08T10:00:18.201Z,55.83
2023-01-08T10:02:45.781Z,54.40
2023-01-08T10:05:20.749Z,52.22
2023-01-08T10:07:48.511Z,54.40
2023-01-08T10:10:33.822Z,48.88
2023-01-08T10:13:01.282Z,64.82
2023-01-08T10:15:34.753Z,59.90
2023-01-08T10:18:04.385Z,49.00
2023-01-08T10:20:38.916Z,49.50
2023-01-08T10:23:10.029Z,53.97
2023-01-08T10:25:54.757Z,54.55
2023-01-08T10:28:32.713Z,47.75
2023-01-08T10:31:00.938Z,49.30
2023-01-08T10:33:37.884Z,53.63
2023-01-08T10:36:07.236Z,42.83
2023-01-08T10:38:36.554Z,53.20
2023-01-08T10:41:14.820Z,45.38
2023-01-08T10:46:24.768Z,44.67
2023-01-08T10:48:59.696Z,45.70
2023-01-08T10:51:30.901Z,47.10
2023-01-08T10:54:15.706Z,48.15
2023-01-08T10:56:43.922Z,38.60
2023-01-08T10:59:27.869Z,48.72
2023-01-08T11:01:57.211Z,39.00
2023-01-08T11:04:42.711Z,46.28
2023-01-08T11:07:20.435Z,46.13
2023-01-08T11:09:55.731Z,45.97
2023-01-08T11:12:34.536Z,44.60
2023-01-08T11:15:08.849Z,46.67
2023-01-08T11:17:36.133Z,55.60
2023-01-08T11:20:29.716Z,57.22
2023-01-08T11:23:13.768Z,41.00
2023-01-08T11:25:41.434Z,44.92
2023-01-08T11:28:21.787Z,35.25
2023-01-08T11:30:51.738Z,38.72
2023-01-08T11:33:28.901Z,33.75
2023-01-08T11:36:12.687Z,42.17
2023-01-08T11:38:47.872Z,40.92
2023-01-08T11:41:14.953Z,44.05
2023-01-08T11:43:58.852Z,41.15
2023-01-08T11:46:43.009Z,42.85
2023-01-08T11:49:31.831Z,36.63
2023-01-08T11:55:04.776Z,33.28
2023-01-08T11:57:50.038Z,41.35
2023-01-08T12:00:42.945Z,33.60
2023-01-08T12:03:22.705Z,32.05
2023-01-08T12:06:08.832Z,40.97
2023-01-08T12:08:58.620Z,42.70
2023-01-08T12:11:36.816Z,33.47
2023-01-08T12:16:51.869Z,37.97
2023-01-08T12:19:22.019Z,40.72
2023-01-08T12:22:08.055Z,32.83
2023-01-08T12:25:00.716Z,37.40
2023-01-08T12:27:56.258Z,32.42
2023-01-08T12:30:42.763Z,32.40
2023-01-08T12:33:12.380Z,30.25
2023-01-08T12:35:47.731Z,38.97
2023-01-08T12:38:30.893Z,28.23
2023-01-08T12:41:05.753Z,32.25
2023-01-08T12:43:36.261Z,39.60
2023-01-08T12:46:03.910Z,31.75
2023-01-08T12:48:39.813Z,40.53
2023-01-08T12:51:25.463Z,33.20
2023-01-08T12:54:17.898Z,39.47
2023-01-08T12:57:03.751Z,45.75
2023-01-08T12:59:51.881Z,41.50
2023-01-08T13:02:41.888Z,43.92
2023-01-08T13:05:32.338Z,39.00
2023-01-08T13:08:07.852Z,39.13
2023-01-08T13:10:55.321Z,42.08
2023-01-08T13:13:38.751Z,52.22
2023-01-08T13:16:24.597Z,53.83
2023-01-08T13:18:59.738Z,48.42
2023-01-08T13:21:33.077Z,47.13
2023-01-08T13:24:08.909Z,53.00
2023-01-08T13:26:37.795Z,47.58
2023-01-08T13:29:31.736Z,57.72
2023-01-08T13:31:58.985Z,50.42
2023-01-08T13:34:46.722Z,56.92
2023-01-08T13:37:27.773Z,50.10
2023-01-08T13:40:16.756Z,52.15
2023-01-08T13:42:50.824Z,48.40
2023-01-08T13:45:24.802Z,47.08
2023-01-08T13:47:51.987Z,53.42
2023-01-08T13:50:27.760Z,45.17
2023-01-08T13:53:02.772Z,52.00
2023-01-08T13:55:53.755Z,56.40
2023-01-08T13:58:25.102Z,57.35
2023-01-08T14:01:00.826Z,52.03
2023-01-08T14:03:35.430Z,50.53
2023-01-08T14:06:20.865Z,54.75
2023-01-08T14:09:04.775Z,46.58
2023-01-08T14:11:51.781Z,58.30
2023-01-08T14:14:20.713Z,55.63
2023-01-08T14:16:48.477Z,50.28
2023-01-08T14:19:23.932Z,59.67
2023-01-08T14:21:55.776Z,63.35
2023-01-08T14:24:30.871Z,71.05
2023-01-08T14:26:58.952Z,58.83
2023-01-08T14:29:33.840Z,71.57
2023-01-08T14:32:01.480Z,69.72
2023-01-08T14:34:30.598Z,57.45
2023-01-08T14:37:04.839Z,67.63
2023-01-08T14:39:31.998Z,55.83
2023-01-08T14:42:27.976Z,93.13
2023-01-08T14:45:00.244Z,70.32
2023-01-08T14:47:36.912Z,63.08
2023-01-08T21:14:24.927Z,38.45
2023-01-08T21:16:52.169Z,39.78
2023-01-08T21:19:26.005Z,26.92
2023-01-08T21:21:53.175Z,36.97
2023-01-08T21:24:20.491Z,32.55
2023-01-08T21:26:53.922Z,32.08
2023-01-08T21:29:23.166Z,23.08
2023-01-08T21:31:57.050Z,35.30
2023-01-08T21:34:24.131Z,29.88
2023-01-08T21:36:58.093Z,35.40
2023-01-08T21:39:25.678Z,31.45
2023-01-08T21:45:03.952Z,27.00
2023-01-08T21:47:37.937Z,29.35
2023-01-08T21:50:11.888Z,29.65
2023-01-08T21:52:58.011Z,35.13
2023-01-08T21:55:31.888Z,24.83
2023-01-08T21:57:59.101Z,31.98
2023-01-08T22:00:27.081Z,25.55
2023-01-08T22:03:01.046Z,30.02
2023-01-08T22:05:28.255Z,28.13
2023-01-08T22:08:01.993Z,24.17
2023-01-08T22:10:29.307Z,25.73
2023-01-08T22:13:08.976Z,24.60
2023-01-08T22:15:36.239Z,23.48
2023-01-08T22:18:03.357Z,31.60
2023-01-08T22:20:37.029Z,26.88
2023-01-08T22:23:04.249Z,21.98
2023-01-08T22:25:37.996Z,33.47
2023-01-08T22:28:05.197Z,28.38
2023-01-08T22:30:32.350Z,23.70
2023-01-08T22:33:05.998Z,17.83
2023-01-08T22:35:33.088Z,25.02
2023-01-08T22:38:00.359Z,24.40
2023-01-08T22:40:33.961Z,21.77
2023-01-08T22:43:01.108Z,19.02
2023-01-08T22:45:35.209Z,23.42
2023-01-08T22:48:02.418Z,25.65
2023-01-08T22:50:29.585Z,18.00
2023-01-08T22:53:03.098Z,15.35
2023-01-08T22:55:30.342Z,26.67
2023-01-08T22:58:03.991Z,20.70
2023-01-08T23:00:31.228Z,18.13
2023-01-08T23:02:58.330Z,26.55
2023-01-08T23:05:31.946Z,17.13
2023-01-08T23:07:59.159Z,17.65
2023-01-08T23:10:32.983Z,22.52
2023-01-08T23:13:06.941Z,17.13
2023-01-08T23:15:47.120Z,22.95
2023-01-08T23:18:14.277Z,22.27
2023-01-08T23:20:41.919Z,21.05
2023-01-08T23:23:15.983Z,23.13
2023-01-08T23:25:43.151Z,20.35
2023-01-08T23:28:17.144Z,18.42
2023-01-08T23:30:44.303Z,15.32
2023-01-08T23:33:11.546Z,26.58
2023-01-08T23:35:45.039Z,18.63
2023-01-08T23:38:12.237Z,26.13
2023-01-08T23:40:42.430Z,19.35
2023-01-08T23:43:15.958Z,24.38
2023-01-08T23:45:43.268Z,20.15
2023-01-08T23:48:17.022Z,20.70
2023-01-08T23:50:44.238Z,20.80
2023-01-08T23:53:11.399Z,19.80
2023-01-08T23:55:45.060Z,19.38
2023-01-08T23:58:12.257Z,18.02
